createdAt,value
2022-11-29T00:01:03.263Z,2.55
2022-11-29T00:03:04.825Z,1.80
2022-11-29T00:05:06.728Z,1.50
2022-11-29T00:07:08.256Z,1.38
2022-11-29T00:09:11.717Z,1.35
2022-11-29T00:11:34.916Z,1.38
2022-11-29T00:13:36.363Z,1.33
2022-11-29T00:15:38.733Z,1.30
2022-11-29T00:17:40.343Z,1.25
2022-11-29T00:19:41.830Z,1.15
2022-11-29T00:21:43.347Z,1.20
2022-11-29T00:23:45.000Z,1.10
2022-11-29T00:25:46.408Z,1.65
2022-11-29T00:27:47.879Z,1.90
2022-11-29T00:29:49.464Z,1.98
2022-11-29T00:31:50.872Z,1.50
2022-11-29T00:33:52.680Z,1.40
2022-11-29T00:35:54.232Z,1.95
2022-11-29T00:37:55.735Z,1.60
2022-11-29T00:39:57.248Z,1.50
2022-11-29T00:41:58.660Z,1.30
2022-11-29T00:44:00.614Z,1.60
2022-11-29T00:46:02.582Z,1.55
2022-11-29T00:48:04.212Z,1.27
2022-11-29T00:50:06.429Z,1.27
2022-11-29T00:52:07.886Z,1.20
2022-11-29T00:54:09.534Z,1.77
2022-11-29T00:56:11.315Z,1.80
2022-11-29T00:58:12.779Z,3.08
2022-11-29T01:00:14.462Z,2.35
2022-11-29T01:02:16.134Z,2.33
2022-11-29T01:04:22.792Z,2.38
2022-11-29T01:06:41.866Z,1.85
2022-11-29T01:08:58.818Z,2.70
2022-11-29T01:11:06.778Z,2.25
2022-11-29T01:13:14.015Z,3.25
2022-11-29T01:15:33.421Z,2.53
2022-11-29T01:17:50.581Z,2.42
2022-11-29T01:20:07.965Z,2.22
2022-11-29T01:22:29.631Z,2.33
2022-11-29T01:24:50.882Z,3.20
2022-11-29T01:27:06.997Z,2.97
2022-11-29T01:29:33.743Z,2.80
2022-11-29T01:32:01.707Z,3.10
2022-11-29T01:34:21.323Z,3.30
2022-11-29T01:36:46.067Z,2.28
2022-11-29T01:39:16.955Z,2.88
2022-11-29T01:41:49.646Z,3.13
2022-11-29T01:43:55.878Z,3.20
2022-11-29T01:45:57.424Z,2.50
2022-11-29T01:47:59.251Z,3.67
2022-11-29T01:50:02.688Z,2.67
2022-11-29T01:52:06.573Z,2.65
2022-11-29T01:54:09.804Z,3.40
2022-11-29T01:56:14.497Z,3.27
2022-11-29T01:58:16.380Z,4.22
2022-11-29T02:00:19.281Z,4.82
2022-11-29T02:02:24.738Z,3.97
2022-11-29T02:04:26.419Z,3.30
2022-11-29T02:06:29.182Z,3.50
2022-11-29T02:08:36.028Z,4.10
2022-11-29T02:10:57.694Z,4.43
2022-11-29T02:13:17.907Z,3.30
2022-11-29T02:15:25.660Z,3.42
2022-11-29T02:17:40.193Z,3.97
2022-11-29T02:20:00.202Z,5.35
2022-11-29T02:22:05.158Z,6.18
2022-11-29T02:24:25.388Z,4.68
2022-11-29T02:26:33.059Z,6.20
2022-11-29T02:28:37.522Z,5.60
2022-11-29T02:30:58.109Z,4.60
2022-11-29T02:33:18.672Z,3.22
2022-11-29T02:35:39.351Z,2.63
2022-11-29T02:37:40.719Z,4.88
2022-11-29T02:39:54.070Z,3.13
2022-11-29T02:42:20.217Z,3.45
2022-11-29T02:44:40.465Z,2.58
2022-11-29T02:46:41.857Z,2.40
2022-11-29T02:49:02.105Z,1.88
2022-11-29T02:51:33.104Z,1.27
2022-11-29T02:53:42.253Z,1.25
2022-11-29T02:55:43.711Z,1.30
2022-11-29T02:58:03.912Z,1.13
2022-11-29T03:00:07.835Z,1.70
2022-11-29T03:02:09.507Z,1.92
2022-11-29T03:04:11.078Z,2.55
2022-11-29T03:06:18.786Z,3.08
2022-11-29T03:08:25.100Z,3.15
2022-11-29T03:10:45.182Z,1.33
2022-11-29T03:12:48.777Z,1.63
2022-11-29T03:15:10.424Z,1.52
2022-11-29T03:17:30.847Z,5.28
2022-11-29T03:19:39.448Z,6.22
2022-11-29T03:21:45.890Z,3.92
2022-11-29T03:23:48.409Z,4.40
2022-11-29T03:25:55.876Z,4.05
2022-11-29T03:28:06.020Z,1.95
2022-11-29T03:30:08.988Z,2.10
2022-11-29T03:32:29.196Z,1.50
2022-11-29T03:34:50.753Z,2.20
2022-11-29T03:37:11.466Z,2.70
2022-11-29T03:39:18.831Z,1.73
2022-11-29T03:41:23.923Z,1.83
2022-11-29T03:43:52.005Z,2.03
2022-11-29T03:46:25.980Z,1.67
2022-11-29T03:48:27.437Z,1.70
2022-11-29T03:50:37.763Z,2.08
2022-11-29T03:52:39.191Z,0.95
2022-11-29T03:54:40.578Z,0.80
2022-11-29T03:56:42.189Z,2.42
2022-11-29T03:59:02.335Z,2.63
2022-11-29T04:01:15.130Z,1.05
2022-11-29T04:03:35.416Z,1.02
2022-11-29T04:06:03.657Z,1.13
2022-11-29T04:08:32.640Z,1.52
2022-11-29T04:11:18.035Z,1.10
2022-11-29T04:14:04.466Z,1.00
2022-11-29T04:16:40.713Z,0.75
2022-11-29T04:19:01.426Z,0.82
2022-11-29T04:21:28.754Z,0.95
2022-11-29T04:24:16.566Z,0.55
2022-11-29T04:26:39.216Z,1.20
2022-11-29T04:28:51.207Z,0.52
2022-11-29T04:31:32.990Z,0.63
2022-11-29T04:34:14.655Z,0.60
2022-11-29T04:36:35.502Z,1.08
2022-11-29T04:38:53.753Z,0.47
2022-11-29T04:41:12.966Z,1.00
2022-11-29T04:43:54.150Z,1.02
2022-11-29T04:46:10.796Z,1.27
2022-11-29T04:48:24.263Z,1.30
2022-11-29T04:50:31.986Z,1.13
2022-11-29T04:52:33.392Z,0.60
2022-11-29T04:54:39.481Z,0.57
2022-11-29T04:56:53.025Z,1.17
2022-11-29T04:59:09.895Z,0.55
2022-11-29T05:01:17.802Z,0.68
2022-11-29T05:03:31.255Z,1.48
2022-11-29T05:05:52.899Z,1.23
2022-11-29T05:08:13.601Z,0.40
2022-11-29T05:10:24.138Z,0.70
2022-11-29T05:12:31.976Z,0.82
2022-11-29T05:15:06.253Z,1.38
2022-11-29T05:17:07.620Z,1.35
2022-11-29T05:19:14.837Z,0.80
2022-11-29T05:21:39.669Z,0.77
2022-11-29T05:23:47.263Z,0.57
2022-11-29T05:25:48.649Z,0.93
2022-11-29T05:27:55.601Z,0.77
2022-11-29T05:30:05.755Z,0.70
2022-11-29T05:32:26.919Z,1.00
2022-11-29T05:34:35.121Z,0.60
2022-11-29T05:36:49.028Z,1.55
2022-11-29T05:39:09.464Z,0.63
2022-11-29T05:41:29.745Z,1.00
2022-11-29T05:43:49.874Z,1.23
2022-11-29T05:45:57.641Z,0.85
2022-11-29T05:48:17.773Z,1.75
2022-11-29T05:50:25.461Z,1.38
2022-11-29T05:52:32.949Z,1.00
2022-11-29T05:54:44.470Z,1.27
2022-11-29T05:56:50.900Z,1.55
2022-11-29T05:58:56.357Z,2.17
2022-11-29T06:01:24.329Z,1.50
2022-11-29T06:03:45.072Z,3.83
2022-11-29T06:06:01.479Z,1.45
2022-11-29T06:08:14.995Z,4.15
2022-11-29T06:10:18.088Z,3.00
2022-11-29T06:12:21.534Z,3.03
2022-11-29T06:14:38.376Z,2.72
2022-11-29T06:16:58.389Z,2.85
2022-11-29T06:19:11.960Z,2.45
2022-11-29T06:21:22.990Z,1.70
2022-11-29T06:23:24.632Z,3.40
2022-11-29T06:25:44.343Z,2.45
2022-11-29T06:27:54.169Z,4.00
2022-11-29T06:30:04.360Z,2.40
2022-11-29T06:32:20.527Z,2.17
2022-11-29T06:34:30.695Z,2.47
2022-11-29T06:36:52.737Z,2.33
2022-11-29T06:38:54.264Z,2.92
2022-11-29T06:41:01.516Z,2.08
2022-11-29T06:43:03.896Z,2.60
2022-11-29T06:45:05.692Z,1.23
2022-11-29T06:47:17.927Z,2.85
2022-11-29T06:49:22.480Z,3.88
2022-11-29T06:51:28.875Z,2.65
2022-11-29T06:53:52.289Z,3.05
2022-11-29T06:55:56.881Z,2.72
2022-11-29T06:58:13.526Z,2.97
2022-11-29T07:00:23.376Z,1.85
2022-11-29T07:02:40.097Z,3.15
2022-11-29T07:04:45.888Z,2.60
2022-11-29T07:06:48.136Z,1.67
2022-11-29T07:08:53.233Z,1.75
2022-11-29T07:10:55.616Z,1.95
2022-11-29T07:13:05.593Z,2.83
2022-11-29T07:15:17.716Z,1.73
2022-11-29T07:17:47.728Z,1.80
2022-11-29T07:22:56.049Z,1.80
2022-11-29T07:25:30.765Z,2.38
2022-11-29T07:28:14.098Z,2.40
2022-11-29T07:30:57.277Z,1.35
2022-11-29T07:33:30.879Z,1.20
2022-11-29T07:36:05.743Z,1.17
2022-11-29T07:38:37.638Z,0.75
2022-11-29T07:41:20.490Z,0.90
2022-11-29T07:43:48.583Z,0.95
2022-11-29T07:45:55.484Z,0.98
2022-11-29T07:47:57.219Z,1.27
2022-11-29T07:49:58.712Z,1.08
2022-11-29T07:52:00.209Z,1.35
2022-11-29T07:54:01.921Z,1.85
2022-11-29T07:56:03.588Z,2.05
2022-11-29T07:58:05.276Z,2.22
2022-11-29T08:00:07.244Z,1.90
2022-11-29T08:02:11.930Z,2.25
2022-11-29T08:04:14.224Z,2.63
2022-11-29T08:06:15.648Z,2.47
2022-11-29T08:08:17.129Z,2.95
2022-11-29T08:10:18.909Z,3.13
2022-11-29T08:12:20.751Z,3.08
2022-11-29T08:14:22.170Z,2.47
2022-11-29T08:16:23.924Z,2.97
2022-11-29T08:18:25.611Z,1.80
2022-11-29T08:20:27.088Z,1.80
2022-11-29T08:22:28.887Z,1.75
2022-11-29T08:24:30.708Z,1.88
2022-11-29T08:26:32.365Z,1.48
2022-11-29T08:28:33.864Z,2.30
2022-11-29T08:30:35.701Z,1.85
2022-11-29T08:32:37.138Z,2.40
2022-11-29T08:34:38.566Z,2.38
2022-11-29T08:36:39.968Z,3.33
2022-11-29T08:38:41.701Z,3.42
2022-11-29T08:40:43.319Z,4.35
2022-11-29T08:42:44.968Z,3.25
2022-11-29T08:44:48.119Z,3.50
2022-11-29T08:47:08.529Z,2.85
2022-11-29T08:49:10.048Z,3.35
2022-11-29T08:51:11.626Z,4.25
2022-11-29T08:53:31.817Z,3.83
2022-11-29T08:55:35.455Z,4.53
2022-11-29T08:57:40.973Z,5.00
2022-11-29T08:59:44.942Z,3.75
2022-11-29T09:01:46.802Z,5.68
2022-11-29T09:04:02.405Z,4.70
2022-11-29T09:06:12.003Z,3.58
2022-11-29T09:08:13.823Z,3.75
2022-11-29T09:10:15.363Z,2.92
2022-11-29T09:12:16.927Z,3.03
2022-11-29T09:14:19.277Z,3.45
2022-11-29T09:16:22.326Z,3.50
2022-11-29T09:18:23.816Z,3.58
2022-11-29T09:20:25.409Z,3.45
2022-11-29T09:24:52.317Z,8.32
2022-11-29T09:26:53.736Z,7.82
2022-11-29T09:28:55.253Z,8.27
2022-11-29T09:30:56.836Z,8.63
2022-11-29T09:33:05.251Z,8.00
2022-11-29T09:35:07.042Z,9.02
2022-11-29T09:37:08.500Z,8.05
2022-11-29T09:39:12.620Z,9.50
2022-11-29T09:41:33.024Z,11.27
2022-11-29T09:43:46.460Z,9.38
2022-11-29T09:45:50.104Z,9.20
2022-11-29T09:47:57.916Z,8.30
2022-11-29T09:50:19.909Z,7.03
2022-11-29T09:52:21.482Z,5.88
2022-11-29T09:54:33.773Z,4.93
2022-11-29T09:56:42.134Z,5.32
2022-11-29T09:58:47.296Z,7.35
2022-11-29T10:00:50.145Z,12.30
2022-11-29T10:03:16.997Z,10.40
2022-11-29T10:05:23.810Z,10.95
2022-11-29T10:07:32.600Z,10.82
2022-11-29T10:09:39.065Z,9.18
2022-11-29T10:11:59.462Z,9.63
2022-11-29T10:14:05.870Z,8.95
2022-11-29T10:16:24.989Z,7.43
2022-11-29T10:18:54.892Z,6.47
2022-11-29T10:23:25.391Z,10.10
2022-11-29T10:25:41.554Z,9.57
2022-11-29T10:27:51.720Z,7.05
2022-11-29T10:29:58.533Z,6.45
2022-11-29T10:32:10.391Z,9.95
2022-11-29T10:34:27.751Z,8.52
2022-11-29T10:36:50.484Z,7.45
2022-11-29T10:39:02.259Z,8.10
2022-11-29T10:41:15.266Z,8.65
2022-11-29T10:43:29.628Z,8.02
2022-11-29T10:45:42.854Z,6.93
2022-11-29T10:47:55.453Z,9.70
2022-11-29T10:50:03.923Z,9.07
2022-11-29T10:52:23.614Z,9.57
2022-11-29T10:54:46.927Z,6.68
2022-11-29T10:56:54.546Z,6.50
2022-11-29T10:59:00.484Z,5.50
2022-11-29T11:01:06.746Z,4.72
2022-11-29T11:03:16.287Z,4.00
2022-11-29T11:05:24.833Z,4.43
2022-11-29T11:07:31.901Z,3.45
2022-11-29T11:09:47.177Z,3.45
2022-11-29T11:11:52.709Z,2.50
2022-11-29T11:13:57.984Z,6.57
2022-11-29T11:16:08.917Z,7.07
2022-11-29T11:18:19.231Z,5.88
2022-11-29T11:20:22.838Z,4.35
2022-11-29T11:22:25.339Z,5.78
2022-11-29T11:24:28.149Z,7.18
2022-11-29T11:26:41.272Z,6.93
2022-11-29T11:28:42.669Z,5.60
2022-11-29T11:30:49.944Z,7.72
2022-11-29T11:33:10.107Z,6.47
2022-11-29T11:35:22.028Z,6.45
2022-11-29T11:37:26.324Z,9.48
2022-11-29T11:39:28.146Z,11.45
2022-11-29T11:41:51.854Z,10.25
2022-11-29T11:43:58.248Z,9.00
2022-11-29T11:46:00.075Z,8.80
2022-11-29T11:48:03.710Z,10.50
2022-11-29T11:50:15.296Z,10.50
2022-11-29T11:52:20.461Z,8.73
2022-11-29T11:54:21.895Z,9.25
2022-11-29T11:56:24.152Z,11.13
2022-11-29T11:58:36.853Z,9.07
2022-11-29T12:01:03.045Z,12.15
2022-11-29T12:03:03.175Z,10.50
2022-11-29T12:05:06.379Z,14.07
2022-11-29T12:07:17.451Z,10.50
2022-11-29T12:09:27.898Z,8.98
2022-11-29T12:11:33.842Z,11.10
2022-11-29T12:13:36.002Z,7.93
2022-11-29T12:15:39.767Z,8.13
2022-11-29T12:17:44.016Z,6.75
2022-11-29T12:21:52.474Z,6.88
2022-11-29T12:23:54.084Z,6.55
2022-11-29T12:26:01.545Z,7.93
2022-11-29T12:28:03.624Z,7.35
2022-11-29T12:30:16.985Z,7.07
2022-11-29T12:32:29.060Z,7.20
2022-11-29T12:34:36.543Z,5.25
2022-11-29T12:36:38.107Z,4.55
2022-11-29T12:38:42.260Z,4.65
2022-11-29T12:41:04.408Z,5.20
2022-11-29T12:43:05.816Z,4.55
2022-11-29T12:45:24.553Z,5.43
2022-11-29T12:47:35.540Z,5.47
2022-11-29T12:50:01.443Z,3.70
2022-11-29T12:54:16.497Z,6.95
2022-11-29T12:56:20.748Z,5.45
2022-11-29T13:00:24.530Z,10.48
2022-11-29T13:02:25.956Z,10.00
2022-11-29T13:04:58.065Z,10.27
2022-11-29T13:07:08.398Z,9.65
2022-11-29T13:09:29.370Z,6.97
2022-11-29T13:11:32.303Z,10.13
2022-11-29T13:13:36.758Z,8.93
2022-11-29T13:15:42.978Z,8.50
2022-11-29T13:17:53.708Z,7.00
2022-11-29T13:20:00.667Z,6.35
2022-11-29T13:22:21.245Z,5.22
2022-11-29T13:24:37.110Z,6.57
2022-11-29T13:27:02.351Z,4.35
2022-11-29T13:29:26.151Z,3.47
2022-11-29T13:31:30.874Z,3.78
2022-11-29T13:33:56.894Z,3.38
2022-11-29T13:36:31.903Z,3.88
2022-11-29T13:39:01.351Z,4.20
2022-11-29T13:41:14.898Z,6.03
2022-11-29T13:43:18.086Z,9.15
2022-11-29T13:45:26.272Z,5.32
2022-11-29T13:47:40.951Z,4.28
2022-11-29T13:50:03.955Z,3.28
2022-11-29T13:52:07.353Z,6.30
2022-11-29T13:54:39.625Z,3.97
2022-11-29T13:56:49.542Z,2.88
2022-11-29T13:59:03.785Z,3.00
2022-11-29T14:01:08.834Z,3.35
2022-11-29T14:03:19.936Z,3.05
2022-11-29T14:05:28.640Z,2.70
2022-11-29T14:07:30.164Z,2.55
2022-11-29T14:09:34.501Z,4.50
2022-11-29T14:13:44.045Z,4.03
2022-11-29T14:15:53.929Z,4.60
2022-11-29T14:17:57.054Z,4.57
2022-11-29T14:20:16.960Z,4.05
2022-11-29T14:22:20.001Z,4.10
2022-11-29T14:24:37.801Z,2.65
2022-11-29T14:26:39.284Z,3.53
2022-11-29T14:28:40.897Z,3.35
2022-11-29T14:30:42.264Z,4.07
2022-11-29T14:32:56.387Z,3.25
2022-11-29T14:35:03.301Z,2.30
2022-11-29T14:37:15.189Z,4.07
2022-11-29T14:39:22.651Z,5.88
2022-11-29T14:41:30.774Z,12.82
2022-11-29T14:43:34.384Z,11.70
2022-11-29T14:46:17.629Z,12.45
2022-11-29T14:48:26.821Z,9.50
2022-11-29T14:50:28.256Z,11.35
2022-11-29T14:52:31.479Z,8.93
2022-11-29T14:54:33.740Z,10.20
2022-11-29T14:56:38.761Z,8.98
2022-11-29T14:58:40.464Z,8.45
2022-11-29T15:00:47.981Z,8.40
2022-11-29T15:02:55.647Z,11.85
2022-11-29T15:04:57.516Z,16.80
2022-11-29T15:06:59.172Z,25.13
2022-11-29T15:09:15.510Z,20.63
2022-11-29T15:11:35.549Z,16.35
2022-11-29T15:13:39.041Z,19.50
2022-11-29T15:15:56.857Z,16.25
2022-11-29T15:18:18.627Z,13.55
2022-11-29T15:20:29.086Z,10.57
2022-11-29T15:22:30.512Z,14.18
2022-11-29T15:24:32.091Z,11.57
2022-11-29T15:26:33.564Z,13.88
2022-11-29T15:28:35.278Z,13.98
2022-11-29T15:30:38.433Z,9.88
2022-11-29T15:32:39.860Z,10.95
2022-11-29T15:34:45.717Z,9.55
2022-11-29T15:36:47.461Z,10.60
2022-11-29T15:38:50.397Z,9.20
2022-11-29T15:40:53.121Z,8.57
2022-11-29T15:42:57.950Z,11.18
2022-11-29T15:44:59.462Z,9.07
2022-11-29T15:47:20.553Z,7.85
2022-11-29T15:49:21.986Z,6.55
2022-11-29T15:51:29.524Z,5.93
2022-11-29T15:53:33.692Z,5.15
2022-11-29T15:57:37.879Z,4.15
2022-11-29T15:59:45.113Z,4.85
2022-11-29T16:01:48.883Z,4.63
2022-11-29T16:03:52.378Z,4.03
2022-11-29T16:05:58.709Z,4.30
2022-11-29T16:08:01.755Z,3.30
2022-11-29T16:10:35.029Z,3.00
2022-11-29T16:12:49.746Z,3.08
2022-11-29T16:14:52.912Z,2.40
2022-11-29T16:16:55.151Z,2.00
2022-11-29T16:19:07.647Z,1.77
2022-11-29T16:21:29.132Z,1.92
2022-11-29T16:23:37.310Z,2.88
2022-11-29T16:25:59.091Z,4.88
2022-11-29T16:28:01.835Z,3.05
2022-11-29T16:30:07.349Z,3.25
2022-11-29T16:32:16.250Z,3.05
2022-11-29T16:34:27.835Z,2.85
2022-11-29T16:36:31.249Z,2.60
2022-11-29T16:38:34.354Z,3.28
2022-11-29T16:40:36.869Z,3.17
2022-11-29T16:42:39.804Z,2.70
2022-11-29T16:44:54.962Z,3.13
2022-11-29T16:47:13.064Z,4.97
2022-11-29T16:49:36.567Z,5.63
2022-11-29T16:51:49.022Z,4.85
2022-11-29T16:53:52.037Z,3.97
2022-11-29T16:55:54.913Z,4.28
2022-11-29T16:57:57.556Z,3.70
2022-11-29T17:00:00.183Z,3.22
2022-11-29T17:02:03.845Z,2.65
2022-11-29T17:04:06.481Z,2.40
2022-11-29T17:06:11.006Z,2.53
2022-11-29T17:08:12.783Z,2.80
2022-11-29T17:10:16.701Z,3.60
2022-11-29T17:12:19.045Z,2.75
2022-11-29T17:14:20.486Z,2.72
2022-11-29T17:16:23.436Z,3.25
2022-11-29T17:18:24.913Z,3.88
2022-11-29T17:20:26.337Z,4.07
2022-11-29T17:22:28.013Z,6.80
2022-11-29T17:24:29.483Z,6.88
2022-11-29T17:26:30.869Z,10.60
2022-11-29T17:28:32.546Z,8.73
2022-11-29T17:30:34.102Z,12.00
2022-11-29T17:32:35.785Z,10.63
2022-11-29T17:34:37.298Z,10.02
2022-11-29T17:36:38.772Z,10.30
2022-11-29T17:38:40.272Z,9.45
2022-11-29T17:40:41.804Z,10.00
2022-11-29T17:42:43.256Z,7.53
2022-11-29T17:44:44.727Z,6.70
2022-11-29T17:46:46.260Z,11.00
2022-11-29T17:48:47.784Z,13.73
2022-11-29T17:50:49.239Z,13.45
2022-11-29T17:52:50.651Z,11.40
2022-11-29T17:54:52.114Z,15.27
2022-11-29T17:56:53.846Z,13.32
2022-11-29T17:58:56.424Z,10.90
2022-11-29T18:01:08.622Z,10.32
2022-11-29T18:03:10.206Z,11.07
2022-11-29T18:05:11.621Z,7.25
2022-11-29T18:07:14.913Z,6.00
2022-11-29T18:09:17.897Z,5.63
2022-11-29T18:11:20.369Z,4.40
2022-11-29T18:13:22.256Z,3.67
2022-11-29T18:15:23.927Z,4.28
2022-11-29T18:17:25.328Z,4.07
2022-11-29T18:19:27.921Z,4.25
2022-11-29T18:21:29.689Z,7.07
2022-11-29T18:23:32.029Z,6.00
2022-11-29T18:25:40.872Z,5.68
2022-11-29T18:27:42.569Z,6.63
2022-11-29T18:29:44.001Z,5.25
2022-11-29T18:31:46.077Z,6.70
2022-11-29T18:33:49.622Z,7.82
2022-11-29T18:35:51.431Z,9.95
2022-11-29T18:38:15.913Z,7.65
2022-11-29T18:40:14.753Z,9.80
2022-11-29T18:42:16.133Z,12.75
2022-11-29T18:44:18.922Z,12.93
2022-11-29T18:46:20.490Z,18.90
2022-11-29T18:48:22.043Z,15.45
2022-11-29T18:50:23.464Z,14.05
2022-11-29T18:52:24.992Z,11.77
2022-11-29T18:54:26.504Z,12.77
2022-11-29T18:56:29.260Z,11.90
2022-11-29T18:58:30.859Z,7.45
2022-11-29T19:00:32.339Z,10.05
2022-11-29T19:02:33.806Z,10.63
2022-11-29T19:04:36.719Z,8.82
2022-11-29T19:06:39.899Z,7.30
2022-11-29T19:08:42.400Z,7.25
2022-11-29T19:10:44.721Z,5.95
2022-11-29T19:12:46.135Z,7.55
2022-11-29T19:14:50.033Z,10.57
2022-11-29T19:16:51.758Z,11.52
2022-11-29T19:18:54.153Z,16.05
2022-11-29T19:21:08.832Z,22.80
2022-11-29T19:25:11.632Z,17.88
2022-11-29T19:27:13.121Z,16.92
2022-11-29T19:29:14.755Z,14.43
2022-11-29T19:31:17.665Z,14.65
2022-11-29T19:33:19.102Z,13.82
2022-11-29T19:35:26.445Z,12.05
2022-11-29T19:37:28.258Z,10.35
2022-11-29T19:39:29.924Z,11.23
2022-11-29T19:41:58.098Z,11.95
2022-11-29T19:44:03.765Z,17.52
2022-11-29T19:46:08.911Z,12.43
2022-11-29T19:48:13.558Z,14.88
2022-11-29T19:50:16.500Z,10.82
2022-11-29T19:52:20.742Z,10.77
2022-11-29T19:54:24.817Z,10.85
2022-11-29T19:58:33.554Z,26.77
2022-11-29T20:00:36.971Z,26.33
2022-11-29T20:02:40.580Z,23.48
2022-11-29T20:04:46.658Z,19.40
2022-11-29T20:06:52.881Z,18.58
2022-11-29T20:08:56.822Z,19.45
2022-11-29T20:11:33.621Z,13.52
2022-11-29T20:13:37.487Z,11.10
2022-11-29T20:15:41.667Z,12.68
2022-11-29T20:17:43.625Z,12.48
2022-11-29T20:19:45.428Z,8.80
2022-11-29T20:21:48.810Z,8.90
2022-11-29T20:23:54.367Z,12.02
2022-11-29T20:25:56.585Z,7.70
2022-11-29T20:27:58.513Z,7.75
2022-11-29T20:29:59.928Z,8.30
2022-11-29T20:32:01.315Z,8.52
2022-11-29T20:34:03.139Z,7.25
2022-11-29T20:36:23.673Z,5.82
2022-11-29T20:38:33.994Z,5.40
2022-11-29T20:40:40.333Z,5.75
2022-11-29T20:42:42.096Z,6.07
2022-11-29T20:44:53.682Z,10.88
2022-11-29T20:46:55.184Z,13.55
2022-11-29T20:49:00.427Z,11.77
2022-11-29T20:51:05.128Z,13.23
2022-11-29T20:53:25.293Z,7.30
2022-11-29T20:55:26.679Z,9.02
2022-11-29T20:57:28.259Z,15.13
2022-11-29T20:59:29.792Z,16.23
2022-11-29T21:01:31.521Z,16.90
2022-11-29T21:03:33.324Z,16.10
2022-11-29T21:05:37.153Z,14.77
2022-11-29T21:07:38.567Z,10.75
2022-11-29T21:09:40.080Z,11.48
2022-11-29T21:11:41.672Z,10.68
2022-11-29T21:13:43.414Z,9.50
2022-11-29T21:15:45.157Z,8.95
2022-11-29T21:17:46.785Z,8.43
2022-11-29T21:19:48.589Z,7.00
2022-11-29T21:21:59.131Z,7.88
2022-11-29T21:24:00.558Z,9.45
2022-11-29T21:26:10.734Z,8.38
2022-11-29T21:28:13.020Z,6.35
2022-11-29T21:30:18.849Z,9.88
2022-11-29T21:32:25.156Z,7.47
2022-11-29T21:34:27.193Z,9.07
2022-11-29T21:36:29.222Z,11.48
2022-11-29T21:38:31.149Z,10.15
2022-11-29T21:40:32.745Z,9.18
2022-11-29T21:42:34.161Z,9.20
2022-11-29T21:44:35.875Z,10.27
2022-11-29T21:46:37.447Z,9.05
2022-11-29T21:48:42.192Z,10.55
2022-11-29T21:50:50.017Z,9.90
2022-11-29T21:52:52.101Z,11.43
2022-11-29T21:54:53.735Z,12.20
2022-11-29T21:56:55.268Z,11.93
2022-11-29T21:58:57.107Z,9.93
2022-11-29T22:01:12.609Z,6.68
2022-11-29T22:03:14.238Z,7.85
2022-11-29T22:05:15.692Z,11.68
2022-11-29T22:07:17.809Z,12.40
2022-11-29T22:09:19.328Z,8.55
2022-11-29T22:11:30.662Z,7.75
2022-11-29T22:13:32.465Z,5.45
2022-11-29T22:15:33.988Z,5.40
2022-11-29T22:17:35.387Z,4.85
2022-11-29T22:19:37.117Z,5.40
2022-11-29T22:21:42.417Z,3.83
2022-11-29T22:23:43.821Z,3.55
2022-11-29T22:25:45.214Z,3.10
2022-11-29T22:27:48.556Z,3.10
2022-11-29T22:29:49.989Z,2.83
2022-11-29T22:31:55.308Z,2.88
2022-11-29T22:33:57.120Z,2.58
2022-11-29T22:36:02.430Z,2.70
2022-11-29T22:38:03.826Z,3.67
2022-11-29T22:40:06.014Z,3.25
2022-11-29T22:42:07.520Z,1.88
2022-11-29T22:44:09.194Z,2.70
2022-11-29T22:46:17.433Z,3.63
2022-11-29T22:48:32.025Z,3.22
2022-11-29T22:50:39.561Z,2.65
2022-11-29T22:52:42.824Z,2.03
2022-11-29T22:54:47.132Z,3.25
2022-11-29T22:56:49.884Z,2.97
2022-11-29T22:58:54.423Z,3.83
2022-11-29T23:01:12.236Z,3.00
2022-11-29T23:03:16.704Z,4.93
2022-11-29T23:07:23.572Z,4.28
2022-11-29T23:09:27.980Z,3.85
2022-11-29T23:13:38.825Z,2.92
2022-11-29T23:15:43.683Z,4.88
2022-11-29T23:17:48.005Z,3.25
2022-11-29T23:19:51.610Z,3.17
2022-11-29T23:21:57.599Z,5.38
2022-11-29T23:24:03.019Z,6.13
2022-11-29T23:26:05.531Z,5.80
2022-11-29T23:28:06.995Z,4.47
2022-11-29T23:30:08.644Z,4.90
2022-11-29T23:32:10.092Z,3.22
2022-11-29T23:34:12.054Z,2.63
2022-11-29T23:36:14.422Z,3.08
2022-11-29T23:38:16.554Z,2.47
2022-11-29T23:40:17.996Z,3.08
2022-11-29T23:42:19.733Z,2.63
2022-11-29T23:44:21.122Z,2.17
2022-11-29T23:46:23.923Z,2.60
2022-11-29T23:48:25.401Z,3.35
2022-11-29T23:50:26.840Z,3.42
2022-11-29T23:52:28.633Z,2.67
2022-11-29T23:54:30.027Z,4.63
2022-11-29T23:56:35.254Z,5.22
2022-11-29T23:58:37.972Z,5.10
